Santa Clara, Oregon
Current Conditions -  °F | °C
As of 1:54 AM on Friday 24 Oct 2014 (Local Time) from KEUG Reporting Station
Clear Clear  
Wind Chill: 51°   Ceiling: Unl
Heat Index: 51°   Visibility: 10mi
Dew Point: 48°   Wind: 5mph
Humidity: 89%   Direction: 160°SSE
Pressure: 30.02"   Gusts: NA
Location:  44.1°N, 123.12°W
Report Text: KEUG 240854Z AUTO 16004KT 10SM CLR 11/09 A3002 RMK AO2 SLP167 T01060089 51004
Loading
Personal Weather Stations






























Interactive Weather Map
Tropical Storm Tracking
New forecast layout! Learn more

10-Day Weather Forecast

Advertisements
Track Severe Weather on mobile